Time;durP1;ratioP1;P1;durP2;ratioP2;P2;SDS_P1;SDS_P2;PMS_P1;PMS_P2;Temp;Humidity;BMP_temperature;BMP_pressure;BME280_temperature;BME280_humidity;BME280_pressure;Samples;Min_cycle;Max_cycle;Signal;HPM_P1;HPM_P2
2021/10/06 00:02:20;;;;;;;1.83;1.35;;;;;;;9.18;75.63;101044.00;5089345;28;20040;-77
2021/10/06 00:04:47;;;;;;;4.32;1.52;;;;;;;9.18;75.93;101055.88;5087961;28;20097;-77
2021/10/06 00:07:14;;;;;;;4.55;1.40;;;;;;;9.18;75.87;101055.88;5086267;28;20040;-76
2021/10/06 00:09:41;;;;;;;4.07;1.70;;;;;;;9.21;75.84;101065.44;5089620;28;20046;-78
2021/10/06 00:12:08;;;;;;;5.90;1.50;;;;;;;9.18;75.94;101058.63;5087479;28;20060;-77
2021/10/06 00:14:34;;;;;;;8.15;1.92;;;;;;;9.19;76.00;101063.00;5089995;28;20479;-77
2021/10/06 00:17:23;;;;;;;4.07;1.60;;;;;;;9.18;75.93;101069.69;5086867;28;20047;-77
2021/10/06 00:19:52;;;;;;;5.10;1.60;;;;;;;9.23;75.98;101073.38;5088283;28;20048;-77
2021/10/06 00:22:21;;;;;;;2.70;1.92;;;;;;;9.24;76.00;101059.22;5089323;28;20032;-77
2021/10/06 00:24:49;;;;;;;2.90;2.05;;;;;;;9.23;75.92;101076.16;5087228;28;20032;-76
2021/10/06 00:27:16;;;;;;;5.88;1.85;;;;;;;9.19;76.19;101090.63;5085146;28;20502;-77
2021/10/06 00:29:42;;;;;;;4.85;1.98;;;;;;;9.20;76.09;101091.44;5088978;28;20407;-77
2021/10/06 00:32:09;;;;;;;6.53;1.75;;;;;;;9.17;76.08;101098.44;5086013;28;20062;-77
2021/10/06 00:34:36;;;;;;;4.57;2.30;;;;;;;9.23;75.99;101103.78;5090446;28;20040;-77
2021/10/06 00:37:02;;;;;;;3.08;2.47;;;;;;;9.18;76.09;101091.78;5087798;28;20059;-77
2021/10/06 00:39:30;;;;;;;3.75;1.77;;;;;;;9.15;76.21;101097.94;5087498;28;20051;-77
2021/10/06 00:41:57;;;;;;;8.88;2.60;;;;;;;9.16;76.05;101091.25;5088823;28;20050;-77
2021/10/06 00:44:24;;;;;;;8.10;2.58;;;;;;;9.13;76.08;101099.41;5085867;28;20111;-76
2021/10/06 00:46:50;;;;;;;3.83;1.80;;;;;;;9.09;76.29;101103.94;5088085;28;20079;-77
2021/10/06 00:49:18;;;;;;;4.38;1.98;;;;;;;9.08;76.21;101102.34;5088239;28;20076;-77
2021/10/06 00:51:45;;;;;;;4.45;2.13;;;;;;;9.06;76.25;101110.94;5087354;28;20159;-76
2021/10/06 00:54:11;;;;;;;8.20;3.22;;;;;;;9.05;76.39;101100.22;5088235;28;20054;-77
2021/10/06 00:56:38;;;;;;;6.63;2.28;;;;;;;9.03;76.44;101105.25;5085734;28;20040;-76
2021/10/06 00:59:05;;;;;;;13.63;3.05;;;;;;;9.02;76.38;101106.41;5088445;28;20080;-77
2021/10/06 01:01:32;;;;;;;5.38;1.70;;;;;;;8.99;76.60;101118.91;5086632;28;20054;-77
2021/10/06 01:04:00;;;;;;;5.75;1.55;;;;;;;8.94;76.60;101115.50;5087680;28;20587;-77
2021/10/06 01:06:27;;;;;;;4.97;1.98;;;;;;;8.94;76.83;101110.81;5086927;28;20136;-77
2021/10/06 01:08:56;;;;;;;4.95;1.83;;;;;;;8.98;76.74;101106.22;5085805;28;20407;-77
2021/10/06 01:11:23;;;;;;;5.03;2.08;;;;;;;9.01;76.78;101104.78;5086470;28;20044;-76
2021/10/06 01:13:50;;;;;;;4.53;1.80;;;;;;;8.99;76.93;101099.59;5088011;28;20086;-77
2021/10/06 01:16:17;;;;;;;7.03;1.95;;;;;;;9.01;77.02;101111.09;5085324;28;20150;-76
2021/10/06 01:18:44;;;;;;;4.82;1.73;;;;;;;9.05;76.67;101106.53;5087848;28;20841;-77
2021/10/06 01:21:16;;;;;;;3.53;1.60;;;;;;;9.05;77.08;101112.06;5088640;28;20044;-76
2021/10/06 01:23:45;;;;;;;5.47;1.90;;;;;;;9.02;77.21;101117.44;5078898;28;20383;-77
2021/10/06 01:26:18;;;;;;;5.60;1.80;;;;;;;9.04;77.23;101121.50;5085791;28;20044;-77
2021/10/06 01:28:52;;;;;;;8.15;1.60;;;;;;;9.04;77.33;101104.94;5084792;28;20054;-77
2021/10/06 01:31:24;;;;;;;2.47;1.13;;;;;;;9.02;77.31;101103.66;5084368;28;20044;-77
2021/10/06 01:33:51;;;;;;;9.48;1.55;;;;;;;9.02;77.30;101106.41;5085750;28;20036;-76
2021/10/06 01:36:18;;;;;;;3.38;1.40;;;;;;;9.02;77.39;101107.22;5058611;28;20048;-77
2021/10/06 01:38:45;;;;;;;2.15;1.02;;;;;;;8.99;77.44;101115.34;5061480;28;20155;-77
2021/10/06 01:41:12;;;;;;;5.78;2.42;;;;;;;8.98;77.44;101111.75;5087205;28;20043;-77
2021/10/06 01:43:38;;;;;;;2.70;1.13;;;;;;;8.99;77.38;101113.41;5057637;28;20048;-77
2021/10/06 01:46:05;;;;;;;6.68;1.67;;;;;;;8.97;77.51;101110.16;5084742;28;20052;-76
2021/10/06 01:48:32;;;;;;;6.20;1.58;;;;;;;8.99;77.32;101115.34;5086494;28;20472;-77
2021/10/06 01:50:59;;;;;;;3.10;1.20;;;;;;;9.01;77.30;101107.53;5086689;28;20059;-76
2021/10/06 01:53:35;;;;;;;7.05;1.40;;;;;;;8.96;77.39;101096.66;5087823;28;20028;-76
2021/10/06 01:56:03;;;;;;;1.85;1.30;;;;;;;8.94;77.60;101093.41;5085893;28;20036;-76
2021/10/06 01:58:29;;;;;;;2.97;1.10;;;;;;;8.91;77.43;101099.59;5088055;28;20032;-76
2021/10/06 02:00:56;;;;;;;2.78;1.13;;;;;;;8.90;77.52;101093.25;5088847;28;20054;-76
2021/10/06 02:03:23;;;;;;;2.63;1.20;;;;;;;8.89;77.62;101096.34;5088538;28;20434;-76
2021/10/06 02:05:50;;;;;;;8.20;2.20;;;;;;;8.85;78.04;101096.16;5084618;28;20044;-77
2021/10/06 02:08:17;;;;;;;2.45;1.20;;;;;;;8.86;77.80;101092.28;5085748;28;20115;-77
2021/10/06 02:10:44;;;;;;;6.72;2.03;;;;;;;8.89;78.08;101090.81;5086841;28;20047;-76
2021/10/06 02:13:12;;;;;;;3.30;1.23;;;;;;;8.90;77.82;101082.19;5087276;28;20415;-76
2021/10/06 02:15:39;;;;;;;4.95;1.30;;;;;;;8.92;77.87;101085.44;5086991;28;20032;-77
2021/10/06 02:18:06;;;;;;;4.25;1.35;;;;;;;8.96;77.80;101085.59;5085626;28;20055;-76
2021/10/06 02:20:33;;;;;;;4.82;1.38;;;;;;;8.97;77.73;101087.25;5084708;28;20044;-77
2021/10/06 02:23:00;;;;;;;5.35;1.20;;;;;;;8.93;78.08;101098.13;5085862;28;20051;-77
2021/10/06 02:25:27;;;;;;;3.08;1.45;;;;;;;8.85;78.45;101100.88;5087346;28;20040;-76
2021/10/06 02:27:53;;;;;;;3.55;1.38;;;;;;;8.84;78.08;101102.03;5086608;28;20563;-76
2021/10/06 02:30:20;;;;;;;2.63;1.33;;;;;;;8.83;78.13;101089.34;5084532;28;20516;-76
2021/10/06 02:32:47;;;;;;;2.80;1.35;;;;;;;8.86;78.06;101097.81;5086403;28;20047;-76
2021/10/06 02:35:14;;;;;;;6.10;1.50;;;;;;;8.85;78.19;101101.69;5088989;28;20043;-76
2021/10/06 02:37:41;;;;;;;3.75;1.60;;;;;;;8.84;78.24;101105.56;5087686;28;20044;-76
2021/10/06 02:40:12;;;;;;;5.60;1.45;;;;;;;8.86;77.82;101125.41;5086007;28;20052;-76
2021/10/06 02:42:40;;;;;;;1.85;1.50;;;;;;;8.87;78.23;101127.03;5085758;28;20048;-76
2021/10/06 02:45:08;;;;;;;3.53;1.50;;;;;;;8.84;78.46;101115.84;5086107;28;20052;-76
2021/10/06 02:47:35;;;;;;;2.70;1.20;;;;;;;8.84;78.54;101118.59;5084520;28;20479;-76
2021/10/06 02:50:03;;;;;;;3.92;1.20;;;;;;;8.83;78.63;101125.25;5083021;28;20056;-76
2021/10/06 02:52:30;;;;;;;4.47;1.58;;;;;;;8.84;78.70;101126.88;5086654;28;20051;-76
2021/10/06 02:54:58;;;;;;;5.63;1.65;;;;;;;8.84;78.64;101133.19;5084090;28;20411;-76
2021/10/06 02:57:24;;;;;;;4.72;1.60;;;;;;;8.87;78.63;101129.78;5082135;28;20131;-76
2021/10/06 02:59:52;;;;;;;7.10;1.67;;;;;;;8.90;78.64;101120.84;5083982;28;20028;-76
2021/10/06 03:02:19;;;;;;;3.85;1.83;;;;;;;8.91;78.69;101127.19;5084176;28;20052;-75
2021/10/06 03:04:45;;;;;;;6.85;1.60;;;;;;;8.91;78.77;101128.00;5085266;28;20040;-76
2021/10/06 03:07:12;;;;;;;10.80;2.47;;;;;;;8.90;78.66;101118.09;5084615;28;20418;-77
2021/10/06 03:09:39;;;;;;;4.15;2.42;;;;;;;8.91;78.76;101116.97;5085797;28;20044;-77
2021/10/06 03:12:06;;;;;;;3.85;1.80;;;;;;;8.88;78.87;101106.56;5082939;28;20055;-76
2021/10/06 03:14:32;;;;;;;2.38;1.63;;;;;;;8.89;78.89;101102.69;5086707;28;20036;-76
2021/10/06 03:16:59;;;;;;;5.05;1.45;;;;;;;8.91;78.84;101094.88;5083840;28;20438;-76
2021/10/06 03:19:26;;;;;;;2.70;1.48;;;;;;;8.91;78.82;101085.78;5085277;28;20036;-77
2021/10/06 03:21:52;;;;;;;4.35;1.70;;;;;;;8.92;78.65;101084.66;5068582;28;20131;-76
2021/10/06 03:24:19;;;;;;;9.73;2.35;;;;;;;8.90;79.13;101087.72;5091754;28;20039;-77
2021/10/06 03:26:49;;;;;;;5.43;1.90;;;;;;;8.90;79.43;101086.91;5087331;28;20043;-77
2021/10/06 03:29:16;;;;;;;6.88;1.75;;;;;;;8.89;79.65;101101.88;5088318;28;20044;-77
2021/10/06 03:31:42;;;;;;;5.95;1.83;;;;;;;8.90;79.44;101104.28;5090329;28;20039;-76
2021/10/06 03:34:09;;;;;;;4.35;1.55;;;;;;;8.91;79.58;101097.63;5089946;28;20158;-76
2021/10/06 03:36:36;;;;;;;3.55;1.45;;;;;;;8.92;79.72;101098.47;5090171;28;20040;-77
2021/10/06 03:39:03;;;;;;;5.20;1.73;;;;;;;8.95;79.47;101104.13;5089080;28;20542;-77
2021/10/06 03:41:29;;;;;;;4.70;2.00;;;;;;;8.95;79.69;101104.13;5087601;28;20040;-76
2021/10/06 03:43:56;;;;;;;6.53;1.70;;;;;;;8.97;79.79;101103.81;5088219;28;20051;-77
2021/10/06 03:46:23;;;;;;;2.40;1.60;;;;;;;8.97;79.76;101104.63;5089521;28;20036;-76
2021/10/06 03:48:51;;;;;;;3.50;1.63;;;;;;;9.01;79.87;101099.25;5088605;28;20036;-77
2021/10/06 03:51:19;;;;;;;4.40;2.35;;;;;;;9.05;79.63;101111.28;5089211;28;20776;-77
2021/10/06 03:53:45;;;;;;;7.35;2.53;;;;;;;9.06;79.72;101113.69;5088004;28;20048;-77
2021/10/06 03:56:12;;;;;;;6.00;1.65;;;;;;;9.02;79.67;101123.78;5088793;28;20453;-77
2021/10/06 03:58:42;;;;;;;9.00;1.70;;;;;;;9.04;79.83;101123.47;5089388;28;20044;-76
2021/10/06 04:01:09;;;;;;;7.13;1.83;;;;;;;9.02;80.12;101126.56;5086614;28;20048;-76
2021/10/06 04:03:36;;;;;;;4.53;2.05;;;;;;;9.03;79.91;101128.16;5089435;28;20040;-77
2021/10/06 04:06:03;;;;;;;4.95;2.40;;;;;;;9.03;80.09;101136.44;5089094;28;20056;-77
2021/10/06 04:08:29;;;;;;;2.97;1.23;;;;;;;9.04;80.21;101126.22;5089662;28;20098;-76
2021/10/06 04:10:56;;;;;;;3.55;1.58;;;;;;;9.05;80.00;101120.34;5089705;28;20048;-77
2021/10/06 04:13:23;;;;;;;2.95;1.50;;;;;;;9.05;80.24;101120.34;5090721;28;20032;-77
2021/10/06 04:15:49;;;;;;;3.67;2.10;;;;;;;9.04;80.25;101132.56;5089900;28;20039;-76
2021/10/06 04:18:16;;;;;;;10.82;3.03;;;;;;;9.07;80.06;101142.97;5088097;28;20040;-77
2021/10/06 04:20:43;;;;;;;3.90;1.73;;;;;;;9.07;80.11;101147.66;5089020;28;20556;-76
2021/10/06 04:23:11;;;;;;;3.35;1.77;;;;;;;9.08;80.17;101152.06;5090205;28;20047;-77
2021/10/06 04:25:40;;;;;;;6.00;2.35;;;;;;;9.10;79.97;101155.31;5086589;28;20078;-77
2021/10/06 04:28:08;;;;;;;4.38;1.60;;;;;;;9.13;80.17;101174.00;5085934;28;20040;-76
2021/10/06 04:30:35;;;;;;;4.13;1.65;;;;;;;9.12;79.99;101173.19;5087043;28;20423;-77
2021/10/06 04:33:01;;;;;;;4.30;1.33;;;;;;;9.12;80.05;101166.84;5087727;28;20463;-76
2021/10/06 04:35:28;;;;;;;9.30;2.22;;;;;;;9.09;80.35;101164.72;5084008;28;20032;-77
2021/10/06 04:37:55;;;;;;;4.57;2.33;;;;;;;9.09;80.21;101157.25;5089857;28;20109;-77
2021/10/06 04:40:22;;;;;;;4.60;1.77;;;;;;;9.10;80.39;101169.94;5085725;28;20162;-77
2021/10/06 04:42:50;;;;;;;6.38;1.65;;;;;;;9.11;80.55;101179.00;5088602;28;20415;-77
2021/10/06 04:45:17;;;;;;;5.10;1.38;;;;;;;9.09;80.43;101164.72;5087597;28;20048;-77
2021/10/06 04:47:43;;;;;;;3.00;1.33;;;;;;;9.08;80.49;101168.63;5088449;28;20050;-78
2021/10/06 04:50:10;;;;;;;5.72;1.45;;;;;;;9.06;80.56;101174.47;5087083;28;20051;-77
2021/10/06 04:52:37;;;;;;;4.63;1.40;;;;;;;9.07;80.56;101181.63;5088654;28;20047;-77
2021/10/06 04:55:04;;;;;;;2.90;1.55;;;;;;;9.07;80.66;101181.63;5086344;28;20060;-76
2021/10/06 04:57:32;;;;;;;6.60;1.70;;;;;;;9.08;80.48;101188.75;5084512;28;20040;-77
2021/10/06 04:59:59;;;;;;;5.53;1.58;;;;;;;9.07;80.83;101187.16;5085013;28;20036;-77
2021/10/06 05:02:26;;;;;;;5.13;1.55;;;;;;;9.08;80.74;101176.91;5087474;28;20044;-77
2021/10/06 05:04:56;;;;;;;4.60;1.98;;;;;;;9.10;80.69;101172.69;5071101;28;20040;-77
2021/10/06 05:07:23;;;;;;;6.03;1.92;;;;;;;9.12;80.54;101183.41;5086879;28;20514;-77
2021/10/06 05:09:51;;;;;;;2.28;1.35;;;;;;;9.08;80.49;101188.75;5087625;28;20032;-77
2021/10/06 05:12:18;;;;;;;7.95;1.77;;;;;;;9.13;80.61;101187.81;5088308;28;20525;-76
2021/10/06 05:14:44;;;;;;;2.78;1.77;;;;;;;9.14;80.75;101208.75;5088277;28;20093;-77
2021/10/06 05:17:11;;;;;;;2.70;1.20;;;;;;;9.12;80.84;101206.31;5086659;28;20048;-77
2021/10/06 05:19:38;;;;;;;11.77;1.83;;;;;;;9.15;80.42;101207.63;5086783;28;20101;-77
2021/10/06 05:22:08;;;;;;;3.60;1.23;;;;;;;9.12;80.62;101216.56;5088900;28;20044;-76
2021/10/06 05:24:34;;;;;;;3.10;1.42;;;;;;;9.10;80.68;101210.53;5086380;28;20256;-76
2021/10/06 05:27:01;;;;;;;6.88;1.67;;;;;;;9.09;80.60;101203.38;5086223;28;20356;-76
2021/10/06 05:29:28;;;;;;;5.70;2.20;;;;;;;9.08;80.55;101204.53;5087761;28;20089;-76
2021/10/06 05:31:55;;;;;;;8.27;1.60;;;;;;;9.06;80.56;101204.84;5087453;28;20059;-76
2021/10/06 05:34:21;;;;;;;4.75;1.35;;;;;;;9.05;80.82;101205.97;5087178;28;20050;-76
2021/10/06 05:36:48;;;;;;;3.58;1.23;;;;;;;9.07;80.88;101202.91;5088377;28;20040;-76
2021/10/06 05:39:15;;;;;;;6.88;1.50;;;;;;;9.05;80.84;101211.50;5086768;28;20157;-76
2021/10/06 05:41:41;;;;;;;3.20;1.40;;;;;;;9.07;80.74;101212.00;5086609;28;20040;-76
2021/10/06 05:44:08;;;;;;;11.43;1.75;;;;;;;9.08;80.60;101208.09;5085951;28;20040;-76
2021/10/06 05:46:35;;;;;;;4.80;1.40;;;;;;;9.08;80.47;101221.91;5085547;28;20081;-75
2021/10/06 05:49:02;;;;;;;3.42;1.63;;;;;;;9.06;80.70;101224.19;5088088;28;20043;-77
2021/10/06 05:51:31;;;;;;;2.67;1.35;;;;;;;9.03;80.71;101224.81;5087066;28;20044;-77
2021/10/06 05:53:57;;;;;;;5.68;2.13;;;;;;;9.04;80.70;101231.97;5087501;28;20040;-76
2021/10/06 05:56:24;;;;;;;8.98;1.52;;;;;;;9.05;80.68;101225.31;5085270;28;20135;-76
2021/10/06 05:58:51;;;;;;;7.30;1.60;;;;;;;9.04;80.71;101225.63;5087582;28;21518;-76
2021/10/06 06:01:17;;;;;;;3.90;1.90;;;;;;;9.01;80.79;101229.03;5084181;28;20051;-75
2021/10/06 06:03:44;;;;;;;2.92;1.77;;;;;;;9.01;81.08;101229.88;5087126;28;20566;-76
2021/10/06 06:06:11;;;;;;;9.13;1.52;;;;;;;9.04;80.95;101225.63;5086619;28;20042;-76
2021/10/06 06:08:38;;;;;;;6.93;1.52;;;;;;;9.04;80.75;101226.47;5086349;28;20052;-76
2021/10/06 06:11:04;;;;;;;4.00;1.67;;;;;;;9.05;80.78;101222.53;5085706;28;20046;-76
2021/10/06 06:13:32;;;;;;;6.68;1.95;;;;;;;9.04;80.81;101220.13;5085983;28;20052;-76
2021/10/06 06:16:04;;;;;;;3.85;1.30;;;;;;;9.03;80.79;101224.00;5088161;28;20505;-76
2021/10/06 06:18:31;;;;;;;8.98;1.70;;;;;;;9.04;80.94;101229.22;5086171;28;20036;-76
2021/10/06 06:20:57;;;;;;;6.20;1.48;;;;;;;9.05;80.87;101232.81;5086911;28;20048;-76
2021/10/06 06:23:26;;;;;;;5.35;1.65;;;;;;;9.04;80.90;101220.94;5085416;28;20043;-76
2021/10/06 06:25:52;;;;;;;4.90;1.50;;;;;;;9.06;81.05;101228.88;5086508;28;20119;-76
2021/10/06 06:28:19;;;;;;;4.63;1.50;;;;;;;9.08;81.04;101226.63;5085353;28;20043;-76
2021/10/06 06:30:46;;;;;;;5.65;1.70;;;;;;;9.09;81.00;101237.34;5085609;28;20492;-76
2021/10/06 06:33:12;;;;;;;7.57;1.88;;;;;;;9.13;81.08;101241.06;5086723;28;20036;-76
2021/10/06 06:35:39;;;;;;;4.80;2.05;;;;;;;9.15;81.37;101233.31;5083324;28;20047;-76
2021/10/06 06:38:06;;;;;;;4.47;1.48;;;;;;;9.15;81.21;101238.81;5087129;28;20048;-76
2021/10/06 06:40:33;;;;;;;4.50;1.77;;;;;;;9.16;81.32;101243.19;5087457;28;20058;-76
2021/10/06 06:42:59;;;;;;;3.25;1.13;;;;;;;9.16;81.46;101240.44;5085064;28;20431;-76
2021/10/06 06:45:26;;;;;;;3.33;1.45;;;;;;;9.17;81.37;101242.06;5086112;28;20096;-76
2021/10/06 06:47:53;;;;;;;12.95;2.20;;;;;;;9.19;81.39;101231.50;5085202;28;20040;-76
2021/10/06 06:50:40;;;;;;;4.68;1.33;;;;;;;9.21;81.17;101236.72;5085253;28;20035;-76
2021/10/06 06:53:06;;;;;;;2.40;1.42;;;;;;;9.26;81.47;101249.56;5086106;28;20044;-76
2021/10/06 06:55:33;;;;;;;4.25;1.20;;;;;;;9.31;81.55;101246.63;5084971;28;20050;-76
2021/10/06 06:58:00;;;;;;;5.97;1.48;;;;;;;9.34;81.56;101260.63;5085548;28;20040;-75
2021/10/06 07:00:26;;;;;;;7.57;1.52;;;;;;;9.35;81.59;101264.16;5086544;28;20131;-76
2021/10/06 07:02:53;;;;;;;4.80;1.20;;;;;;;9.37;81.63;101273.75;5068905;28;20499;-76
2021/10/06 07:05:20;;;;;;;3.67;1.48;;;;;;;9.40;81.77;101272.31;5085914;28;20063;-76
2021/10/06 07:07:49;;;;;;;5.30;1.60;;;;;;;9.45;81.65;101280.47;5084911;28;20039;-76
2021/10/06 07:10:16;;;;;;;4.43;1.55;;;;;;;9.50;81.50;101280.28;5086179;28;20050;-76
2021/10/06 07:12:42;;;;;;;5.68;1.40;;;;;;;9.53;81.51;101283.19;5083231;28;20055;-76
2021/10/06 07:15:09;;;;;;;4.32;1.67;;;;;;;9.55;81.60;101278.19;5082063;28;20406;-77
2021/10/06 07:17:36;;;;;;;6.00;1.67;;;;;;;9.59;81.63;101278.31;5084157;28;20377;-76
2021/10/06 07:20:03;;;;;;;5.78;2.83;;;;;;;9.63;81.56;101279.31;5084907;28;20522;-76
2021/10/06 07:22:30;;;;;;;5.50;2.20;;;;;;;9.64;81.64;101286.44;5086130;28;20043;-76
2021/10/06 07:24:57;;;;;;;9.18;1.85;;;;;;;9.68;81.67;101284.69;5083597;28;20044;-76
2021/10/06 07:27:23;;;;;;;3.70;1.55;;;;;;;9.72;81.66;101296.69;5077424;28;20048;-76
2021/10/06 07:29:50;;;;;;;4.80;1.50;;;;;;;9.76;81.83;101294.91;5085000;28;20040;-77
2021/10/06 07:32:17;;;;;;;8.65;1.55;;;;;;;9.80;81.73;101295.88;5083830;28;20044;-75
2021/10/06 07:34:44;;;;;;;6.18;1.83;;;;;;;9.82;81.71;101296.38;5078787;28;21049;-78
2021/10/06 07:37:10;;;;;;;6.78;1.73;;;;;;;9.87;81.70;101307.28;5077582;28;20032;-76
2021/10/06 07:39:37;;;;;;;11.85;1.90;;;;;;;9.90;81.75;101303.84;5088673;28;20751;-78
2021/10/06 07:42:04;;;;;;;2.90;1.73;;;;;;;9.94;81.43;101315.06;5080826;28;20067;-77
2021/10/06 07:44:31;;;;;;;7.95;2.17;;;;;;;9.93;81.45;101311.47;5083992;28;20484;-77
2021/10/06 07:46:58;;;;;;;7.10;1.88;;;;;;;9.93;81.58;101305.94;5083296;28;20056;-77
2021/10/06 07:49:25;;;;;;;7.32;2.50;;;;;;;9.95;81.46;101306.47;5084161;28;20036;-76
2021/10/06 07:51:51;;;;;;;5.18;2.22;;;;;;;9.96;81.32;101302.53;5064349;28;20692;-77
2021/10/06 07:54:18;;;;;;;10.95;2.15;;;;;;;9.97;81.04;101297.81;5083513;28;20633;-75
2021/10/06 07:56:45;;;;;;;6.20;2.20;;;;;;;9.99;81.44;101285.28;5084372;28;20075;-76
2021/10/06 07:59:12;;;;;;;13.57;2.45;;;;;;;10.02;81.12;101284.63;5082118;28;20360;-76
2021/10/06 08:01:38;;;;;;;10.50;2.25;;;;;;;10.08;81.31;101274.22;5081657;28;20138;-76
2021/10/06 08:04:21;;;;;;;7.95;2.25;;;;;;;10.16;81.35;101287.25;5084036;28;20063;-76
2021/10/06 08:06:48;;;;;;;6.00;1.90;;;;;;;10.23;81.43;101288.34;5085359;28;20048;-76
2021/10/06 08:09:17;;;;;;;9.32;2.13;;;;;;;10.31;81.40;101287.53;5085853;28;20040;-76
2021/10/06 08:11:44;;;;;;;3.35;1.52;;;;;;;10.39;81.49;101288.63;5087165;28;20055;-76
2021/10/06 08:14:10;;;;;;;8.02;1.98;;;;;;;10.46;81.35;101288.16;5087952;28;20384;-76
2021/10/06 08:16:38;;;;;;;9.50;2.20;;;;;;;10.52;81.48;101297.88;5088587;28;20681;-76
2021/10/06 08:19:05;;;;;;;11.05;2.90;;;;;;;10.57;81.37;101297.69;5087849;28;20162;-76
2021/10/06 08:21:32;;;;;;;6.60;2.00;;;;;;;10.64;81.46;101298.00;5067483;28;20758;-76
2021/10/06 08:23:58;;;;;;;9.35;2.70;;;;;;;10.73;81.24;101298.75;5082742;28;20072;-76
2021/10/06 08:26:25;;;;;;;7.00;2.35;;;;;;;10.85;81.21;101301.66;5086182;28;20044;-77
2021/10/06 08:28:52;;;;;;;5.93;1.83;;;;;;;10.97;81.23;101301.75;5083720;28;20043;-76
2021/10/06 08:31:20;;;;;;;12.32;2.33;;;;;;;11.13;81.25;101296.44;5088795;28;20055;-75
2021/10/06 08:33:46;;;;;;;7.00;2.13;;;;;;;11.23;80.97;101302.38;5081910;28;20055;-75
2021/10/06 08:36:13;;;;;;;12.45;3.40;;;;;;;11.35;81.09;101302.50;5066750;28;20454;-76
2021/10/06 08:38:40;;;;;;;10.65;2.60;;;;;;;11.42;80.77;101305.53;5088358;28;20051;-77
2021/10/06 08:41:07;;;;;;;4.82;1.75;;;;;;;11.47;80.83;101301.72;5085704;28;20048;-76
2021/10/06 08:43:37;;;;;;;12.00;2.58;;;;;;;11.54;80.63;101310.34;5086194;28;20399;-76
2021/10/06 08:46:04;;;;;;;11.15;2.60;;;;;;;11.59;80.52;101305.41;5083473;28;20568;-75
2021/10/06 08:48:30;;;;;;;14.65;2.60;;;;;;;11.60;80.34;101301.47;5085555;28;20541;-75
2021/10/06 08:50:58;;;;;;;11.75;2.30;;;;;;;11.60;80.17;101307.03;5088992;28;20044;-79
2021/10/06 08:53:45;;;;;;;10.60;2.58;;;;;;;11.65;79.86;101305.22;5088805;28;20040;-76
2021/10/06 08:56:11;;;;;;;11.93;2.28;;;;;;;11.72;79.86;101297.16;5088173;28;20040;-76
2021/10/06 08:58:38;;;;;;;8.07;2.67;;;;;;;11.77;79.79;101295.00;5085963;28;20044;-77
2021/10/06 09:01:05;;;;;;;9.32;1.63;;;;;;;11.81;79.71;101289.59;5085249;28;20044;-77
2021/10/06 09:03:34;;;;;;;9.02;1.95;;;;;;;11.87;79.80;101296.53;5088837;28;20050;-77
2021/10/06 09:06:07;;;;;;;15.93;2.80;;;;;;;11.92;79.58;101286.03;5084721;28;20047;-76
2021/10/06 09:08:35;;;;;;;7.00;1.98;;;;;;;11.98;79.79;101281.09;5085320;28;20050;-76
2021/10/06 09:11:04;;;;;;;9.75;2.05;;;;;;;12.01;79.41;101289.56;5086318;28;20043;-76
2021/10/06 09:13:35;;;;;;;5.18;1.83;;;;;;;12.06;79.64;101275.47;5088792;28;20422;-76
2021/10/06 09:16:02;;;;;;;8.63;1.83;;;;;;;12.14;79.66;101273.75;5085973;28;20405;-76
2021/10/06 09:18:31;;;;;;;9.38;2.10;;;;;;;12.18;79.52;101272.72;5086330;28;20115;-80
2021/10/06 09:21:01;;;;;;;8.93;2.75;;;;;;;12.23;79.46;101280.03;5087366;28;20040;-77
2021/10/06 09:23:29;;;;;;;8.27;2.13;;;;;;;12.29;79.65;101281.41;5083896;28;20488;-77
2021/10/06 09:26:05;;;;;;;24.15;4.20;;;;;;;12.35;79.44;101282.00;5070442;28;20447;-77
2021/10/06 09:28:34;;;;;;;9.15;1.98;;;;;;;12.41;79.54;101281.44;5086643;28;20040;-77
2021/10/06 09:31:05;;;;;;;8.73;2.05;;;;;;;12.52;79.46;101276.25;5086968;28;20048;-78
2021/10/06 09:33:38;;;;;;;9.63;3.17;;;;;;;12.61;79.17;101265.84;5086961;28;20068;-76
2021/10/06 09:36:16;;;;;;;8.18;1.92;;;;;;;12.68;79.14;101266.88;5068633;28;20052;-77
2021/10/06 09:38:51;;;;;;;15.48;3.28;;;;;;;12.70;79.15;101263.78;5080308;28;20393;-76
2021/10/06 09:41:33;;;;;;;7.75;2.17;;;;;;;12.74;78.73;101273.03;5088686;28;20050;-76
2021/10/06 09:44:14;;;;;;;9.82;2.17;;;;;;;12.78;78.58;101280.34;5084284;28;20118;-77
2021/10/06 09:46:51;;;;;;;8.38;1.75;;;;;;;12.92;78.59;101279.19;5086164;28;20040;-77
2021/10/06 09:49:19;;;;;;;5.78;2.08;;;;;;;13.02;78.18;101278.69;5085776;28;20051;-77
2021/10/06 09:51:47;;;;;;;10.40;1.65;;;;;;;13.11;78.22;101282.19;5086441;28;20036;-77
2021/10/06 09:54:14;;;;;;;9.35;2.28;;;;;;;13.19;78.05;101278.47;5085176;28;20075;-77
2021/10/06 09:56:43;;;;;;;6.45;1.38;;;;;;;13.25;78.07;101282.63;5087899;28;20101;-76
2021/10/06 09:59:13;;;;;;;4.57;0.90;;;;;;;13.28;77.64;101287.50;5085389;28;20051;-77
2021/10/06 10:01:44;;;;;;;4.15;1.15;;;;;;;13.30;76.94;101285.19;5084733;28;20411;-77
2021/10/06 10:04:12;;;;;;;5.38;1.52;;;;;;;13.35;76.74;101282.16;5043441;28;20554;-77
2021/10/06 10:06:39;;;;;;;4.13;0.98;;;;;;;13.45;76.38;101280.88;5045478;28;20051;-77
2021/10/06 10:09:08;;;;;;;4.05;1.15;;;;;;;13.56;76.29;101279.19;5043439;28;20052;-77
2021/10/06 10:11:37;;;;;;;6.18;1.70;;;;;;;13.64;76.52;101284.63;5044750;28;20559;-78
2021/10/06 10:14:06;;;;;;;7.13;1.30;;;;;;;13.70;76.28;101283.22;5042810;28;20432;-77
2021/10/06 10:16:33;;;;;;;7.90;1.25;;;;;;;13.72;76.14;101280.88;5025751;28;20058;-77
2021/10/06 10:19:11;;;;;;;13.73;1.65;;;;;;;13.75;75.79;101291.31;5045725;28;20065;-77
2021/10/06 10:21:45;;;;;;;6.85;1.05;;;;;;;13.76;75.39;101298.50;5042093;28;20055;-78
2021/10/06 10:24:14;;;;;;;4.43;0.90;;;;;;;13.76;75.24;101287.38;5045695;28;20654;-79
2021/10/06 10:27:20;;;;;;;9.95;2.90;;;;;;;13.78;72.87;101282.28;5086127;28;20040;-79
2021/10/06 10:30:04;;;;;;;6.70;0.90;;;;;;;13.81;73.11;101287.13;5041519;28;20067;-80
2021/10/06 10:32:43;;;;;;;3.55;1.40;;;;;;;13.92;73.02;101279.09;5078160;28;20052;-79
2021/10/06 10:35:11;;;;;;;5.28;0.95;;;;;;;14.04;73.44;101273.44;5084342;28;20036;-79
2021/10/06 10:37:47;;;;;;;5.18;0.70;;;;;;;14.16;72.23;101270.63;5084939;28;20078;-79
2021/10/06 10:40:29;;;;;;;16.50;1.90;;;;;;;14.21;71.70;101269.53;5081835;28;20121;-79
2021/10/06 10:43:22;;;;;;;5.53;1.10;;;;;;;14.19;70.92;101283.00;5092742;28;20047;-79
2021/10/06 10:46:12;;;;;;;2.20;0.65;;;;;;;14.14;71.23;101278.50;5086301;28;20048;-80
2021/10/06 10:49:03;;;;;;;3.42;0.60;;;;;;;14.12;71.21;101282.81;5078225;28;20671;-80
2021/10/06 10:51:45;;;;;;;3.35;0.80;;;;;;;14.17;70.98;101282.53;5082776;28;20039;-79
2021/10/06 10:54:29;;;;;;;5.10;1.05;;;;;;;14.22;70.74;101283.09;5086417;28;20064;-80
2021/10/06 10:57:03;;;;;;;2.75;0.70;;;;;;;14.24;70.94;101282.75;5086639;28;20048;-80
2021/10/06 10:59:43;;;;;;;3.75;0.47;;;;;;;14.22;69.67;101276.72;5084236;28;20043;-79
2021/10/06 11:02:20;;;;;;;4.45;0.70;;;;;;;14.17;69.53;101272.22;5085544;28;20044;-80
2021/10/06 11:04:56;;;;;;;6.05;0.93;;;;;;;14.11;69.46;101279.19;5099911;28;20063;-79
2021/10/06 11:07:24;;;;;;;5.72;0.65;;;;;;;14.09;69.39;101272.38;5085766;28;20564;-80
2021/10/06 11:09:54;;;;;;;7.43;0.90;;;;;;;14.08;69.34;101262.41;5086230;28;20055;-79
2021/10/06 11:12:20;;;;;;;3.38;0.43;;;;;;;14.06;69.44;101267.53;5086661;28;20147;-80
2021/10/06 11:15:04;;;;;;;3.70;0.63;;;;;;;14.04;68.97;101249.19;5085209;28;20123;-79
2021/10/06 11:17:30;;;;;;;3.70;0.52;;;;;;;14.07;69.25;101252.44;5085852;28;20036;-79
2021/10/06 11:20:01;;;;;;;2.80;0.65;;;;;;;14.08;69.41;101254.06;5081829;28;20488;-79
2021/10/06 11:22:30;;;;;;;5.30;0.70;;;;;;;14.08;69.24;101267.97;5086255;28;20149;-80
2021/10/06 11:25:00;;;;;;;11.52;1.90;;;;;;;14.04;69.16;101260.34;5084309;28;20131;-79
2021/10/06 11:27:41;;;;;;;4.32;0.68;;;;;;;14.01;69.21;101274.97;5086208;28;20507;-79
2021/10/06 11:30:11;;;;;;;5.47;0.63;;;;;;;13.97;69.38;101271.28;5086192;28;20043;-79
2021/10/06 11:32:55;;;;;;;6.13;0.65;;;;;;;13.97;69.46;101262.13;5085645;28;20407;-79
2021/10/06 11:35:21;;;;;;;3.25;0.50;;;;;;;13.95;69.74;101270.81;5085177;28;20067;-79
2021/10/06 11:37:48;;;;;;;5.78;1.00;;;;;;;13.95;69.96;101268.03;5082205;28;20048;-79